sensor_id;sensor_type;location;lat;lon;timestamp;temperature;humidity
40808;DHT22;26523;52.504;13.498;2022-07-23T00:01:28;18.70;99.90
40808;DHT22;26523;52.504;13.498;2022-07-23T00:03:54;18.60;99.90
40808;DHT22;26523;52.504;13.498;2022-07-23T00:06:21;18.50;99.90
40808;DHT22;26523;52.504;13.498;2022-07-23T00:08:47;18.60;99.90
40808;DHT22;26523;52.504;13.498;2022-07-23T00:11:12;18.50;99.90
40808;DHT22;26523;52.504;13.498;2022-07-23T00:13:39;18.50;99.90
40808;DHT22;26523;52.504;13.498;2022-07-23T00:16:05;18.60;99.90
40808;DHT22;26523;52.504;13.498;2022-07-23T00:18:31;18.60;99.90
40808;DHT22;26523;52.504;13.498;2022-07-23T00:20:56;18.60;99.90
40808;DHT22;26523;52.504;13.498;2022-07-23T00:23:22;18.70;99.90
40808;DHT22;26523;52.504;13.498;2022-07-23T00:25:48;18.60;99.90
40808;DHT22;26523;52.504;13.498;2022-07-23T00:28:13;18.60;99.90
40808;DHT22;26523;52.504;13.498;2022-07-23T00:30:39;18.60;99.90
40808;DHT22;26523;52.504;13.498;2022-07-23T00:33:07;18.60;99.90
40808;DHT22;26523;52.504;13.498;2022-07-23T00:35:37;18.50;99.90
40808;DHT22;26523;52.504;13.498;2022-07-23T00:38:06;18.40;99.90
40808;DHT22;26523;52.504;13.498;2022-07-23T00:40:32;18.40;99.90
40808;DHT22;26523;52.504;13.498;2022-07-23T00:42:58;18.40;99.90
40808;DHT22;26523;52.504;13.498;2022-07-23T00:45:25;18.40;99.90
40808;DHT22;26523;52.504;13.498;2022-07-23T00:47:51;18.40;99.90
40808;DHT22;26523;52.504;13.498;2022-07-23T00:50:16;18.40;99.90
40808;DHT22;26523;52.504;13.498;2022-07-23T00:52:42;18.40;99.90
40808;DHT22;26523;52.504;13.498;2022-07-23T00:55:09;18.50;99.90
40808;DHT22;26523;52.504;13.498;2022-07-23T00:57:36;18.50;99.90
40808;DHT22;26523;52.504;13.498;2022-07-23T01:00:06;18.50;99.90
40808;DHT22;26523;52.504;13.498;2022-07-23T01:02:33;18.60;99.90
40808;DHT22;26523;52.504;13.498;2022-07-23T01:04:58;18.60;99.90
40808;DHT22;26523;52.504;13.498;2022-07-23T01:07:24;18.50;99.90
40808;DHT22;26523;52.504;13.498;2022-07-23T01:09:51;18.50;99.90
40808;DHT22;26523;52.504;13.498;2022-07-23T01:12:17;18.50;99.90
40808;DHT22;26523;52.504;13.498;2022-07-23T01:14:43;18.60;99.90
40808;DHT22;26523;52.504;13.498;2022-07-23T01:17:09;18.70;99.90
40808;DHT22;26523;52.504;13.498;2022-07-23T01:19:35;18.70;99.90
40808;DHT22;26523;52.504;13.498;2022-07-23T01:22:02;18.70;99.90
40808;DHT22;26523;52.504;13.498;2022-07-23T01:24:28;18.80;99.90
40808;DHT22;26523;52.504;13.498;2022-07-23T01:26:54;18.70;99.90
40808;DHT22;26523;52.504;13.498;2022-07-23T01:29:20;18.70;99.90
40808;DHT22;26523;52.504;13.498;2022-07-23T01:31:46;18.60;99.90
40808;DHT22;26523;52.504;13.498;2022-07-23T01:34:12;18.50;99.90
40808;DHT22;26523;52.504;13.498;2022-07-23T01:36:38;18.40;99.90
40808;DHT22;26523;52.504;13.498;2022-07-23T01:39:06;18.30;99.90
40808;DHT22;26523;52.504;13.498;2022-07-23T01:41:31;18.20;99.90
40808;DHT22;26523;52.504;13.498;2022-07-23T01:43:57;18.20;99.90
40808;DHT22;26523;52.504;13.498;2022-07-23T01:46:23;18.10;99.90
40808;DHT22;26523;52.504;13.498;2022-07-23T01:48:49;17.90;99.90
40808;DHT22;26523;52.504;13.498;2022-07-23T01:51:14;17.90;99.90
40808;DHT22;26523;52.504;13.498;2022-07-23T01:53:40;17.80;99.90
40808;DHT22;26523;52.504;13.498;2022-07-23T01:56:06;17.80;99.90
40808;DHT22;26523;52.504;13.498;2022-07-23T01:58:32;17.70;99.90
40808;DHT22;26523;52.504;13.498;2022-07-23T02:00:57;17.70;99.90
40808;DHT22;26523;52.504;13.498;2022-07-23T02:03:23;17.60;99.90
40808;DHT22;26523;52.504;13.498;2022-07-23T02:05:49;17.70;99.90
40808;DHT22;26523;52.504;13.498;2022-07-23T02:08:15;17.70;99.90
40808;DHT22;26523;52.504;13.498;2022-07-23T02:10:46;17.70;99.90
40808;DHT22;26523;52.504;13.498;2022-07-23T02:13:12;17.60;99.90
40808;DHT22;26523;52.504;13.498;2022-07-23T02:15:37;17.70;99.90
40808;DHT22;26523;52.504;13.498;2022-07-23T02:18:03;17.80;99.90
40808;DHT22;26523;52.504;13.498;2022-07-23T02:20:29;17.80;99.90
40808;DHT22;26523;52.504;13.498;2022-07-23T02:22:54;17.80;99.90
40808;DHT22;26523;52.504;13.498;2022-07-23T02:29:02;17.90;99.90
40808;DHT22;26523;52.504;13.498;2022-07-23T02:31:29;17.90;99.90
40808;DHT22;26523;52.504;13.498;2022-07-23T02:33:54;17.90;99.90
40808;DHT22;26523;52.504;13.498;2022-07-23T02:36:20;17.80;99.90
40808;DHT22;26523;52.504;13.498;2022-07-23T02:38:46;17.80;99.90
40808;DHT22;26523;52.504;13.498;2022-07-23T02:41:12;17.80;99.90
40808;DHT22;26523;52.504;13.498;2022-07-23T02:43:38;17.80;99.90
40808;DHT22;26523;52.504;13.498;2022-07-23T02:46:04;17.80;99.90
40808;DHT22;26523;52.504;13.498;2022-07-23T02:48:30;17.80;99.90
40808;DHT22;26523;52.504;13.498;2022-07-23T02:50:55;17.70;99.90
40808;DHT22;26523;52.504;13.498;2022-07-23T02:53:22;17.70;99.90
40808;DHT22;26523;52.504;13.498;2022-07-23T02:55:48;17.70;99.90
40808;DHT22;26523;52.504;13.498;2022-07-23T02:58:14;17.70;99.90
40808;DHT22;26523;52.504;13.498;2022-07-23T03:00:40;17.70;99.90
40808;DHT22;26523;52.504;13.498;2022-07-23T03:03:06;17.70;99.90
40808;DHT22;26523;52.504;13.498;2022-07-23T03:05:33;17.60;99.90
40808;DHT22;26523;52.504;13.498;2022-07-23T03:07:58;17.50;99.90
40808;DHT22;26523;52.504;13.498;2022-07-23T03:10:24;17.50;99.90
40808;DHT22;26523;52.504;13.498;2022-07-23T03:12:50;17.40;99.90
40808;DHT22;26523;52.504;13.498;2022-07-23T03:15:15;17.40;99.90
40808;DHT22;26523;52.504;13.498;2022-07-23T03:17:41;17.40;99.90
40808;DHT22;26523;52.504;13.498;2022-07-23T03:20:07;17.30;99.90
40808;DHT22;26523;52.504;13.498;2022-07-23T03:22:33;17.30;99.90
40808;DHT22;26523;52.504;13.498;2022-07-23T03:24:59;17.30;99.90
40808;DHT22;26523;52.504;13.498;2022-07-23T03:27:26;17.30;99.90
40808;DHT22;26523;52.504;13.498;2022-07-23T03:29:53;17.30;99.90
40808;DHT22;26523;52.504;13.498;2022-07-23T03:32:20;17.40;99.90
40808;DHT22;26523;52.504;13.498;2022-07-23T03:34:45;17.40;99.90
40808;DHT22;26523;52.504;13.498;2022-07-23T03:37:11;17.40;99.90
40808;DHT22;26523;52.504;13.498;2022-07-23T03:39:37;17.60;99.90
40808;DHT22;26523;52.504;13.498;2022-07-23T03:42:02;17.60;99.90
40808;DHT22;26523;52.504;13.498;2022-07-23T03:44:28;17.60;99.90
40808;DHT22;26523;52.504;13.498;2022-07-23T03:46:54;17.70;99.90
40808;DHT22;26523;52.504;13.498;2022-07-23T03:49:20;17.70;99.90
40808;DHT22;26523;52.504;13.498;2022-07-23T03:51:45;17.70;99.90
40808;DHT22;26523;52.504;13.498;2022-07-23T03:54:11;17.60;99.90
40808;DHT22;26523;52.504;13.498;2022-07-23T03:56:37;17.60;99.90
40808;DHT22;26523;52.504;13.498;2022-07-23T03:59:02;17.60;99.90
40808;DHT22;26523;52.504;13.498;2022-07-23T04:01:28;17.40;99.90
40808;DHT22;26523;52.504;13.498;2022-07-23T04:03:54;17.50;99.90
40808;DHT22;26523;52.504;13.498;2022-07-23T04:06:19;17.50;99.90
40808;DHT22;26523;52.504;13.498;2022-07-23T04:08:45;17.60;99.90
40808;DHT22;26523;52.504;13.498;2022-07-23T04:11:10;17.70;99.90
40808;DHT22;26523;52.504;13.498;2022-07-23T04:13:36;17.70;99.90
40808;DHT22;26523;52.504;13.498;2022-07-23T04:16:01;17.60;99.90
40808;DHT22;26523;52.504;13.498;2022-07-23T04:18:28;17.60;99.90
40808;DHT22;26523;52.504;13.498;2022-07-23T04:20:53;17.50;99.90
40808;DHT22;26523;52.504;13.498;2022-07-23T04:23:19;17.40;99.90
40808;DHT22;26523;52.504;13.498;2022-07-23T04:25:45;17.40;99.90
40808;DHT22;26523;52.504;13.498;2022-07-23T04:28:10;17.30;99.90
40808;DHT22;26523;52.504;13.498;2022-07-23T04:30:36;17.30;99.90
40808;DHT22;26523;52.504;13.498;2022-07-23T04:33:02;17.30;99.90
40808;DHT22;26523;52.504;13.498;2022-07-23T04:35:31;17.10;99.90
40808;DHT22;26523;52.504;13.498;2022-07-23T04:37:56;17.10;99.90
40808;DHT22;26523;52.504;13.498;2022-07-23T04:40:22;17.00;99.90
40808;DHT22;26523;52.504;13.498;2022-07-23T04:42:47;17.00;99.90
40808;DHT22;26523;52.504;13.498;2022-07-23T04:45:13;16.90;99.90
40808;DHT22;26523;52.504;13.498;2022-07-23T04:47:38;16.80;99.90
40808;DHT22;26523;52.504;13.498;2022-07-23T04:50:04;16.90;99.90
40808;DHT22;26523;52.504;13.498;2022-07-23T04:52:30;16.80;99.90
40808;DHT22;26523;52.504;13.498;2022-07-23T04:54:55;16.70;99.90
40808;DHT22;26523;52.504;13.498;2022-07-23T04:57:21;16.60;99.90
40808;DHT22;26523;52.504;13.498;2022-07-23T04:59:47;16.30;99.90
40808;DHT22;26523;52.504;13.498;2022-07-23T05:02:12;16.10;99.90
40808;DHT22;26523;52.504;13.498;2022-07-23T05:04:38;16.10;99.90
40808;DHT22;26523;52.504;13.498;2022-07-23T05:07:04;15.90;99.90
40808;DHT22;26523;52.504;13.498;2022-07-23T05:09:29;15.80;99.90
40808;DHT22;26523;52.504;13.498;2022-07-23T05:11:55;15.90;99.90
40808;DHT22;26523;52.504;13.498;2022-07-23T05:14:21;15.90;99.90
40808;DHT22;26523;52.504;13.498;2022-07-23T05:16:46;15.90;99.90
40808;DHT22;26523;52.504;13.498;2022-07-23T05:19:13;15.70;99.90
40808;DHT22;26523;52.504;13.498;2022-07-23T05:21:39;15.70;99.90
40808;DHT22;26523;52.504;13.498;2022-07-23T05:24:05;15.70;99.90
40808;DHT22;26523;52.504;13.498;2022-07-23T05:26:31;15.70;99.90
40808;DHT22;26523;52.504;13.498;2022-07-23T05:28:56;15.70;99.90
40808;DHT22;26523;52.504;13.498;2022-07-23T05:31:22;15.70;99.90
40808;DHT22;26523;52.504;13.498;2022-07-23T05:33:47;15.50;99.90
40808;DHT22;26523;52.504;13.498;2022-07-23T05:36:13;15.50;99.90
40808;DHT22;26523;52.504;13.498;2022-07-23T05:38:39;15.50;99.90
40808;DHT22;26523;52.504;13.498;2022-07-23T05:41:04;15.40;99.90
40808;DHT22;26523;52.504;13.498;2022-07-23T05:43:30;15.40;99.90
40808;DHT22;26523;52.504;13.498;2022-07-23T05:45:56;15.30;99.90
40808;DHT22;26523;52.504;13.498;2022-07-23T05:48:21;15.30;99.90
40808;DHT22;26523;52.504;13.498;2022-07-23T05:50:47;15.30;99.90
40808;DHT22;26523;52.504;13.498;2022-07-23T05:53:13;15.40;99.90
40808;DHT22;26523;52.504;13.498;2022-07-23T05:55:39;15.50;99.90
40808;DHT22;26523;52.504;13.498;2022-07-23T05:58:04;15.50;99.90
40808;DHT22;26523;52.504;13.498;2022-07-23T06:00:30;15.60;99.90
40808;DHT22;26523;52.504;13.498;2022-07-23T06:02:56;15.70;99.90
40808;DHT22;26523;52.504;13.498;2022-07-23T06:05:22;15.80;99.90
40808;DHT22;26523;52.504;13.498;2022-07-23T06:07:48;15.80;99.90
40808;DHT22;26523;52.504;13.498;2022-07-23T06:10:14;15.70;99.90
40808;DHT22;26523;52.504;13.498;2022-07-23T06:12:40;15.70;99.90
40808;DHT22;26523;52.504;13.498;2022-07-23T06:15:07;15.60;99.90
40808;DHT22;26523;52.504;13.498;2022-07-23T06:17:33;15.60;99.90
40808;DHT22;26523;52.504;13.498;2022-07-23T06:19:59;15.60;99.90
40808;DHT22;26523;52.504;13.498;2022-07-23T06:22:24;15.60;99.90
40808;DHT22;26523;52.504;13.498;2022-07-23T06:24:50;15.60;99.90
40808;DHT22;26523;52.504;13.498;2022-07-23T06:27:17;15.50;99.90
40808;DHT22;26523;52.504;13.498;2022-07-23T06:29:44;15.60;99.90
40808;DHT22;26523;52.504;13.498;2022-07-23T06:32:09;15.60;99.90
40808;DHT22;26523;52.504;13.498;2022-07-23T06:34:35;15.50;99.90
40808;DHT22;26523;52.504;13.498;2022-07-23T06:37:01;15.50;99.90
40808;DHT22;26523;52.504;13.498;2022-07-23T06:39:26;15.50;99.90
40808;DHT22;26523;52.504;13.498;2022-07-23T06:41:52;15.50;99.90
40808;DHT22;26523;52.504;13.498;2022-07-23T06:44:18;15.50;99.90
40808;DHT22;26523;52.504;13.498;2022-07-23T06:46:44;15.50;99.90
40808;DHT22;26523;52.504;13.498;2022-07-23T06:49:10;15.50;99.90
40808;DHT22;26523;52.504;13.498;2022-07-23T06:51:35;15.30;99.90
40808;DHT22;26523;52.504;13.498;2022-07-23T06:54:02;15.20;99.90
40808;DHT22;26523;52.504;13.498;2022-07-23T06:56:28;15.20;99.90
40808;DHT22;26523;52.504;13.498;2022-07-23T06:58:53;15.30;99.90
40808;DHT22;26523;52.504;13.498;2022-07-23T07:01:19;15.30;99.90
40808;DHT22;26523;52.504;13.498;2022-07-23T07:03:45;15.40;99.90
40808;DHT22;26523;52.504;13.498;2022-07-23T07:06:11;15.50;99.90
40808;DHT22;26523;52.504;13.498;2022-07-23T07:08:36;15.60;99.90
40808;DHT22;26523;52.504;13.498;2022-07-23T07:11:03;15.70;99.90
40808;DHT22;26523;52.504;13.498;2022-07-23T07:13:29;15.80;99.90
40808;DHT22;26523;52.504;13.498;2022-07-23T07:15:54;16.00;99.90
40808;DHT22;26523;52.504;13.498;2022-07-23T07:18:20;16.10;99.90
40808;DHT22;26523;52.504;13.498;2022-07-23T07:20:45;16.00;99.90
40808;DHT22;26523;52.504;13.498;2022-07-23T07:23:12;15.90;99.90
40808;DHT22;26523;52.504;13.498;2022-07-23T07:25:38;16.00;99.90
40808;DHT22;26523;52.504;13.498;2022-07-23T07:28:04;16.00;99.90
40808;DHT22;26523;52.504;13.498;2022-07-23T07:30:29;16.10;99.90
40808;DHT22;26523;52.504;13.498;2022-07-23T07:32:55;16.30;99.90
40808;DHT22;26523;52.504;13.498;2022-07-23T07:35:21;16.40;99.90
40808;DHT22;26523;52.504;13.498;2022-07-23T07:37:46;16.60;99.90
40808;DHT22;26523;52.504;13.498;2022-07-23T07:40:12;16.70;99.90
40808;DHT22;26523;52.504;13.498;2022-07-23T07:42:46;16.80;99.90
40808;DHT22;26523;52.504;13.498;2022-07-23T07:45:11;17.00;99.90
40808;DHT22;26523;52.504;13.498;2022-07-23T07:47:37;17.20;99.90
40808;DHT22;26523;52.504;13.498;2022-07-23T07:50:03;17.50;99.90
40808;DHT22;26523;52.504;13.498;2022-07-23T07:52:28;17.50;99.90
40808;DHT22;26523;52.504;13.498;2022-07-23T07:54:54;17.60;99.90
40808;DHT22;26523;52.504;13.498;2022-07-23T07:57:19;17.70;99.90
40808;DHT22;26523;52.504;13.498;2022-07-23T07:59:45;17.80;99.90
40808;DHT22;26523;52.504;13.498;2022-07-23T08:02:46;17.90;99.90
40808;DHT22;26523;52.504;13.498;2022-07-23T08:05:13;17.80;99.90
40808;DHT22;26523;52.504;13.498;2022-07-23T08:07:39;17.80;99.90
40808;DHT22;26523;52.504;13.498;2022-07-23T08:10:07;18.00;99.90
40808;DHT22;26523;52.504;13.498;2022-07-23T08:12:51;18.20;99.90
40808;DHT22;26523;52.504;13.498;2022-07-23T08:15:19;18.20;99.90
40808;DHT22;26523;52.504;13.498;2022-07-23T08:17:46;18.70;99.90
40808;DHT22;26523;52.504;13.498;2022-07-23T08:20:13;19.60;99.90
40808;DHT22;26523;52.504;13.498;2022-07-23T08:22:52;20.70;99.90
40808;DHT22;26523;52.504;13.498;2022-07-23T08:25:31;21.90;99.90
40808;DHT22;26523;52.504;13.498;2022-07-23T08:27:58;24.00;99.90
40808;DHT22;26523;52.504;13.498;2022-07-23T08:30:24;25.90;99.90
40808;DHT22;26523;52.504;13.498;2022-07-23T08:32:54;26.20;97.60
40808;DHT22;26523;52.504;13.498;2022-07-23T08:35:28;26.40;96.30
40808;DHT22;26523;52.504;13.498;2022-07-23T08:37:55;26.30;95.80
40808;DHT22;26523;52.504;13.498;2022-07-23T08:40:21;25.60;96.80
40808;DHT22;26523;52.504;13.498;2022-07-23T08:42:49;25.30;99.20
40808;DHT22;26523;52.504;13.498;2022-07-23T08:45:17;25.30;98.60
40808;DHT22;26523;52.504;13.498;2022-07-23T08:47:44;25.00;99.30
40808;DHT22;26523;52.504;13.498;2022-07-23T08:50:10;25.00;99.20
40808;DHT22;26523;52.504;13.498;2022-07-23T08:52:37;25.20;98.70
40808;DHT22;26523;52.504;13.498;2022-07-23T08:55:03;25.10;99.60
40808;DHT22;26523;52.504;13.498;2022-07-23T08:57:29;25.30;99.60
40808;DHT22;26523;52.504;13.498;2022-07-23T08:59:54;25.50;99.90
40808;DHT22;26523;52.504;13.498;2022-07-23T09:02:21;25.20;97.00
40808;DHT22;26523;52.504;13.498;2022-07-23T09:04:47;25.30;97.60
40808;DHT22;26523;52.504;13.498;2022-07-23T09:07:13;26.00;97.40
40808;DHT22;26523;52.504;13.498;2022-07-23T09:09:38;26.30;97.10
40808;DHT22;26523;52.504;13.498;2022-07-23T09:12:09;26.40;94.90
40808;DHT22;26523;52.504;13.498;2022-07-23T09:14:36;26.40;93.10
40808;DHT22;26523;52.504;13.498;2022-07-23T09:17:14;26.10;92.20
40808;DHT22;26523;52.504;13.498;2022-07-23T09:19:42;26.10;92.00
40808;DHT22;26523;52.504;13.498;2022-07-23T09:22:25;26.00;91.60
40808;DHT22;26523;52.504;13.498;2022-07-23T09:27:51;27.20;89.00
40808;DHT22;26523;52.504;13.498;2022-07-23T09:30:19;27.20;85.60
40808;DHT22;26523;52.504;13.498;2022-07-23T09:32:49;27.00;87.10
40808;DHT22;26523;52.504;13.498;2022-07-23T09:35:48;26.80;87.00
40808;DHT22;26523;52.504;13.498;2022-07-23T09:38:14;26.60;85.40
40808;DHT22;26523;52.504;13.498;2022-07-23T09:40:40;26.20;86.30
40808;DHT22;26523;52.504;13.498;2022-07-23T09:43:06;26.00;89.10
40808;DHT22;26523;52.504;13.498;2022-07-23T09:45:36;25.90;90.80
40808;DHT22;26523;52.504;13.498;2022-07-23T09:48:14;25.80;88.60
40808;DHT22;26523;52.504;13.498;2022-07-23T09:50:41;25.70;89.70
40808;DHT22;26523;52.504;13.498;2022-07-23T09:53:08;25.70;87.90
40808;DHT22;26523;52.504;13.498;2022-07-23T09:55:35;26.40;87.40
40808;DHT22;26523;52.504;13.498;2022-07-23T09:58:03;26.70;85.70
40808;DHT22;26523;52.504;13.498;2022-07-23T10:00:30;26.50;83.40
40808;DHT22;26523;52.504;13.498;2022-07-23T10:02:57;26.20;84.10
40808;DHT22;26523;52.504;13.498;2022-07-23T10:05:24;26.30;85.30
40808;DHT22;26523;52.504;13.498;2022-07-23T10:07:51;26.00;85.00
40808;DHT22;26523;52.504;13.498;2022-07-23T10:10:17;25.90;85.30
40808;DHT22;26523;52.504;13.498;2022-07-23T10:12:46;25.70;85.50
40808;DHT22;26523;52.504;13.498;2022-07-23T10:15:12;25.70;85.00
40808;DHT22;26523;52.504;13.498;2022-07-23T10:17:38;25.50;85.90
40808;DHT22;26523;52.504;13.498;2022-07-23T10:20:04;25.30;86.40
40808;DHT22;26523;52.504;13.498;2022-07-23T10:22:35;25.10;86.40
40808;DHT22;26523;52.504;13.498;2022-07-23T10:31:02;25.30;86.90
40808;DHT22;26523;52.504;13.498;2022-07-23T10:36:18;25.40;85.10
40808;DHT22;26523;52.504;13.498;2022-07-23T10:38:55;25.50;86.20
40808;DHT22;26523;52.504;13.498;2022-07-23T10:41:36;25.60;85.00
40808;DHT22;26523;52.504;13.498;2022-07-23T10:44:12;25.70;84.10
40808;DHT22;26523;52.504;13.498;2022-07-23T10:47:01;25.60;83.90
40808;DHT22;26523;52.504;13.498;2022-07-23T10:49:38;25.30;83.80
40808;DHT22;26523;52.504;13.498;2022-07-23T10:57:11;25.30;83.60
40808;DHT22;26523;52.504;13.498;2022-07-23T11:02:24;25.40;83.40
40808;DHT22;26523;52.504;13.498;2022-07-23T11:04:52;25.40;83.50
40808;DHT22;26523;52.504;13.498;2022-07-23T11:07:18;25.20;83.70
40808;DHT22;26523;52.504;13.498;2022-07-23T11:09:44;25.10;82.70
40808;DHT22;26523;52.504;13.498;2022-07-23T11:17:35;25.20;83.80
40808;DHT22;26523;52.504;13.498;2022-07-23T11:25:14;24.70;84.60
40808;DHT22;26523;52.504;13.498;2022-07-23T11:28:09;24.70;84.80
40808;DHT22;26523;52.504;13.498;2022-07-23T11:35:36;24.60;86.20
40808;DHT22;26523;52.504;13.498;2022-07-23T11:38:08;24.60;86.10
40808;DHT22;26523;52.504;13.498;2022-07-23T11:40:39;24.60;86.20
40808;DHT22;26523;52.504;13.498;2022-07-23T11:43:06;24.70;86.40
40808;DHT22;26523;52.504;13.498;2022-07-23T11:45:44;24.80;86.40
40808;DHT22;26523;52.504;13.498;2022-07-23T11:48:26;25.10;85.10
40808;DHT22;26523;52.504;13.498;2022-07-23T11:50:53;25.10;84.40
40808;DHT22;26523;52.504;13.498;2022-07-23T11:53:27;25.30;84.30
40808;DHT22;26523;52.504;13.498;2022-07-23T11:55:53;25.30;83.60
40808;DHT22;26523;52.504;13.498;2022-07-23T11:58:20;25.10;83.60
40808;DHT22;26523;52.504;13.498;2022-07-23T12:00:47;25.10;83.80
40808;DHT22;26523;52.504;13.498;2022-07-23T12:03:13;25.00;83.80
40808;DHT22;26523;52.504;13.498;2022-07-23T12:05:39;24.90;84.30
40808;DHT22;26523;52.504;13.498;2022-07-23T12:08:09;25.00;84.10
40808;DHT22;26523;52.504;13.498;2022-07-23T12:10:44;25.10;83.80
40808;DHT22;26523;52.504;13.498;2022-07-23T12:13:12;25.20;83.50
40808;DHT22;26523;52.504;13.498;2022-07-23T12:15:46;25.30;83.40
40808;DHT22;26523;52.504;13.498;2022-07-23T12:18:22;25.30;83.40
40808;DHT22;26523;52.504;13.498;2022-07-23T12:20:50;25.20;83.00
40808;DHT22;26523;52.504;13.498;2022-07-23T12:23:18;25.20;82.90
40808;DHT22;26523;52.504;13.498;2022-07-23T12:25:45;25.20;83.70
40808;DHT22;26523;52.504;13.498;2022-07-23T12:30:53;25.00;84.00
40808;DHT22;26523;52.504;13.498;2022-07-23T12:33:27;24.90;84.00
40808;DHT22;26523;52.504;13.498;2022-07-23T12:35:55;24.90;83.70
40808;DHT22;26523;52.504;13.498;2022-07-23T12:38:22;24.80;84.10
40808;DHT22;26523;52.504;13.498;2022-07-23T12:40:56;24.80;84.60
40808;DHT22;26523;52.504;13.498;2022-07-23T12:43:27;24.70;84.90
40808;DHT22;26523;52.504;13.498;2022-07-23T12:46:06;24.70;84.40
40808;DHT22;26523;52.504;13.498;2022-07-23T12:48:37;24.70;84.50
40808;DHT22;26523;52.504;13.498;2022-07-23T12:51:17;24.60;84.40
40808;DHT22;26523;52.504;13.498;2022-07-23T12:53:48;24.80;85.60
40808;DHT22;26523;52.504;13.498;2022-07-23T12:56:22;24.80;85.10
40808;DHT22;26523;52.504;13.498;2022-07-23T12:58:57;25.00;83.70
40808;DHT22;26523;52.504;13.498;2022-07-23T13:04:14;25.10;84.00
40808;DHT22;26523;52.504;13.498;2022-07-23T13:06:48;25.20;83.60
40808;DHT22;26523;52.504;13.498;2022-07-23T13:09:20;25.20;83.40
40808;DHT22;26523;52.504;13.498;2022-07-23T13:11:47;25.20;82.90
40808;DHT22;26523;52.504;13.498;2022-07-23T13:14:14;25.10;82.90
40808;DHT22;26523;52.504;13.498;2022-07-23T13:16:41;25.00;82.40
40808;DHT22;26523;52.504;13.498;2022-07-23T13:19:07;24.90;83.30
40808;DHT22;26523;52.504;13.498;2022-07-23T13:21:33;24.80;84.20
40808;DHT22;26523;52.504;13.498;2022-07-23T13:23:59;24.60;83.90
40808;DHT22;26523;52.504;13.498;2022-07-23T13:26:25;24.50;84.40
40808;DHT22;26523;52.504;13.498;2022-07-23T13:28:51;24.40;84.70
40808;DHT22;26523;52.504;13.498;2022-07-23T13:31:17;24.40;84.70
40808;DHT22;26523;52.504;13.498;2022-07-23T13:33:43;24.30;84.70
40808;DHT22;26523;52.504;13.498;2022-07-23T13:36:08;24.30;84.50
40808;DHT22;26523;52.504;13.498;2022-07-23T13:38:34;24.30;84.10
40808;DHT22;26523;52.504;13.498;2022-07-23T13:41:00;24.40;84.40
40808;DHT22;26523;52.504;13.498;2022-07-23T13:43:26;24.40;84.20
40808;DHT22;26523;52.504;13.498;2022-07-23T13:45:52;24.30;85.00
40808;DHT22;26523;52.504;13.498;2022-07-23T13:48:19;24.30;84.90
40808;DHT22;26523;52.504;13.498;2022-07-23T13:50:45;24.30;84.40
40808;DHT22;26523;52.504;13.498;2022-07-23T13:53:13;24.40;84.70
40808;DHT22;26523;52.504;13.498;2022-07-23T13:55:40;24.50;84.80
40808;DHT22;26523;52.504;13.498;2022-07-23T13:58:06;24.60;83.60
40808;DHT22;26523;52.504;13.498;2022-07-23T14:00:34;24.80;82.70
40808;DHT22;26523;52.504;13.498;2022-07-23T14:03:00;24.80;82.40
40808;DHT22;26523;52.504;13.498;2022-07-23T14:05:26;25.00;81.90
40808;DHT22;26523;52.504;13.498;2022-07-23T14:07:52;25.10;82.10
40808;DHT22;26523;52.504;13.498;2022-07-23T14:10:19;25.20;81.50
40808;DHT22;26523;52.504;13.498;2022-07-23T14:12:47;25.10;80.60
40808;DHT22;26523;52.504;13.498;2022-07-23T14:15:14;25.20;80.70
40808;DHT22;26523;52.504;13.498;2022-07-23T14:17:41;25.10;81.10
40808;DHT22;26523;52.504;13.498;2022-07-23T14:20:09;25.20;80.70
40808;DHT22;26523;52.504;13.498;2022-07-23T14:22:36;25.10;80.60
40808;DHT22;26523;52.504;13.498;2022-07-23T14:25:03;25.10;80.60
40808;DHT22;26523;52.504;13.498;2022-07-23T14:27:29;25.10;80.70
40808;DHT22;26523;52.504;13.498;2022-07-23T14:29:55;25.10;81.40
40808;DHT22;26523;52.504;13.498;2022-07-23T14:32:21;25.20;81.00
40808;DHT22;26523;52.504;13.498;2022-07-23T14:34:47;25.30;80.10
40808;DHT22;26523;52.504;13.498;2022-07-23T14:37:13;25.40;79.90
40808;DHT22;26523;52.504;13.498;2022-07-23T14:39:40;25.50;79.50
40808;DHT22;26523;52.504;13.498;2022-07-23T14:42:07;25.50;80.20
40808;DHT22;26523;52.504;13.498;2022-07-23T14:44:33;25.40;79.80
40808;DHT22;26523;52.504;13.498;2022-07-23T14:46:59;25.40;79.40
40808;DHT22;26523;52.504;13.498;2022-07-23T14:49:26;25.40;79.00
40808;DHT22;26523;52.504;13.498;2022-07-23T14:51:51;25.30;79.40
40808;DHT22;26523;52.504;13.498;2022-07-23T14:54:17;25.30;78.90
40808;DHT22;26523;52.504;13.498;2022-07-23T14:56:43;25.20;79.00
40808;DHT22;26523;52.504;13.498;2022-07-23T14:59:09;25.10;78.30
40808;DHT22;26523;52.504;13.498;2022-07-23T15:01:35;25.20;78.10
40808;DHT22;26523;52.504;13.498;2022-07-23T15:04:01;25.20;78.40
40808;DHT22;26523;52.504;13.498;2022-07-23T15:06:26;25.40;77.60
40808;DHT22;26523;52.504;13.498;2022-07-23T15:08:52;25.40;77.80
40808;DHT22;26523;52.504;13.498;2022-07-23T15:11:18;25.20;78.20
40808;DHT22;26523;52.504;13.498;2022-07-23T15:13:43;24.90;78.50
40808;DHT22;26523;52.504;13.498;2022-07-23T15:16:09;24.70;79.00
40808;DHT22;26523;52.504;13.498;2022-07-23T15:18:35;24.50;79.40
40808;DHT22;26523;52.504;13.498;2022-07-23T15:21:02;24.40;79.70
40808;DHT22;26523;52.504;13.498;2022-07-23T15:23:27;24.40;80.10
40808;DHT22;26523;52.504;13.498;2022-07-23T15:25:57;24.40;79.70
40808;DHT22;26523;52.504;13.498;2022-07-23T15:28:23;24.50;79.40
40808;DHT22;26523;52.504;13.498;2022-07-23T15:30:50;24.60;78.90
40808;DHT22;26523;52.504;13.498;2022-07-23T15:33:16;24.60;79.20
40808;DHT22;26523;52.504;13.498;2022-07-23T15:35:42;24.50;79.20
40808;DHT22;26523;52.504;13.498;2022-07-23T15:38:08;24.40;78.90
40808;DHT22;26523;52.504;13.498;2022-07-23T15:40:33;24.30;78.60
40808;DHT22;26523;52.504;13.498;2022-07-23T15:42:59;24.40;78.50
40808;DHT22;26523;52.504;13.498;2022-07-23T15:45:25;24.40;78.30
40808;DHT22;26523;52.504;13.498;2022-07-23T15:47:51;24.40;78.30
40808;DHT22;26523;52.504;13.498;2022-07-23T15:50:16;24.40;78.20
40808;DHT22;26523;52.504;13.498;2022-07-23T15:52:42;24.40;78.20
40808;DHT22;26523;52.504;13.498;2022-07-23T15:55:08;24.20;78.60
40808;DHT22;26523;52.504;13.498;2022-07-23T15:57:34;24.20;78.30
40808;DHT22;26523;52.504;13.498;2022-07-23T15:59:59;24.10;78.60